Time;durP1;ratioP1;P1;durP2;ratioP2;P2;SDS_P1;SDS_P2;PMS_P1;PMS_P2;Temp;Humidity;BMP_temperature;BMP_pressure;BME280_temperature;BME280_humidity;BME280_pressure;Samples;Min_cycle;Max_cycle;Signal;HPM_P1;HPM_P2
2023/03/25 00:01:46;;;;;;;;;;;9.00;99.90;;;;;;5082765;28;19920;-63
2023/03/25 00:04:13;;;;;;;;;;;9.00;99.90;;;;;;5082001;28;20366;-64
2023/03/25 00:06:39;;;;;;;;;;;9.00;99.90;;;;;;5080260;28;19931;-63
2023/03/25 00:09:07;;;;;;;;;;;9.00;99.90;;;;;;5083362;28;19920;-64
2023/03/25 00:11:33;;;;;;;;;;;9.00;99.90;;;;;;5086314;28;20294;-63
2023/03/25 00:14:00;;;;;;;;;;;8.90;99.90;;;;;;5080224;28;19989;-64
2023/03/25 00:16:26;;;;;;;;;;;8.90;99.90;;;;;;5084912;28;19920;-64
2023/03/25 00:18:54;;;;;;;;;;;8.90;99.90;;;;;;5086548;28;20431;-65
2023/03/25 00:21:22;;;;;;;;;;;8.80;99.90;;;;;;5084752;28;19920;-64
2023/03/25 00:23:48;;;;;;;;;;;8.70;99.90;;;;;;5083633;28;20345;-64
2023/03/25 00:26:15;;;;;;;;;;;8.70;99.90;;;;;;5080374;28;19920;-64
2023/03/25 00:28:41;;;;;;;;;;;8.70;99.90;;;;;;5085415;28;19924;-63
2023/03/25 00:31:09;;;;;;;;;;;8.70;99.90;;;;;;5083686;28;20313;-64
2023/03/25 00:33:35;;;;;;;;;;;8.70;99.90;;;;;;5087416;28;19927;-62
2023/03/25 00:36:04;;;;;;;;;;;8.70;99.90;;;;;;5083219;28;19920;-64
2023/03/25 00:38:33;;;;;;;;;;;8.70;99.90;;;;;;5083999;28;20341;-64
2023/03/25 00:41:16;;;;;;;;;;;8.70;99.90;;;;;;5083810;28;19978;-64
2023/03/25 00:43:42;;;;;;;;;;;8.70;99.90;;;;;;5077330;28;20274;-64
2023/03/25 00:46:09;;;;;;;;;;;8.70;99.90;;;;;;5085386;28;19919;-63
2023/03/25 00:48:36;;;;;;;;;;;8.70;99.90;;;;;;5084597;28;19928;-62
2023/03/25 00:51:08;;;;;;;;;;;8.70;99.90;;;;;;5083382;28;19966;-64
2023/03/25 00:53:36;;;;;;;;;;;8.70;99.90;;;;;;5082819;28;20259;-63
2023/03/25 00:56:02;;;;;;;;;;;8.80;99.90;;;;;;5086477;28;19920;-64
2023/03/25 00:58:29;;;;;;;;;;;8.80;99.90;;;;;;5083592;28;19928;-64
2023/03/25 01:00:56;;;;;;;;;;;8.90;99.90;;;;;;5081698;28;20352;-64
2023/03/25 01:03:23;;;;;;;;;;;8.90;99.90;;;;;;5084356;28;19973;-64
2023/03/25 01:05:53;;;;;;;;;;;8.90;99.90;;;;;;5084017;28;20011;-64
2023/03/25 01:08:24;;;;;;;;;;;8.80;99.90;;;;;;5082868;28;19973;-64
2023/03/25 01:10:51;;;;;;;;;;;8.80;99.90;;;;;;5085058;28;19955;-62
2023/03/25 01:13:18;;;;;;;;;;;8.80;99.90;;;;;;5082796;28;19966;-64
2023/03/25 01:15:44;;;;;;;;;;;8.90;99.90;;;;;;5084545;28;19920;-63
2023/03/25 01:18:11;;;;;;;;;;;8.90;99.90;;;;;;5084829;28;19963;-64
2023/03/25 01:20:38;;;;;;;;;;;8.90;99.90;;;;;;5079181;28;20448;-65
2023/03/25 01:23:05;;;;;;;;;;;8.80;99.90;;;;;;5083486;28;19974;-63
2023/03/25 01:25:33;;;;;;;;;;;8.90;99.90;;;;;;5084408;28;19925;-64
2023/03/25 01:27:59;;;;;;;;;;;8.90;99.90;;;;;;5083538;28;19924;-64
2023/03/25 01:30:26;;;;;;;;;;;8.90;99.90;;;;;;5082973;28;19920;-65
2023/03/25 01:32:52;;;;;;;;;;;8.80;99.90;;;;;;5084910;28;19927;-63
2023/03/25 01:35:19;;;;;;;;;;;8.80;99.90;;;;;;5084371;28;19939;-62
2023/03/25 01:37:46;;;;;;;;;;;8.80;99.90;;;;;;5082303;28;19920;-63
2023/03/25 01:40:17;;;;;;;;;;;8.90;99.90;;;;;;5083790;28;20313;-63
2023/03/25 01:42:45;;;;;;;;;;;8.80;99.90;;;;;;5084467;28;19920;-64
2023/03/25 01:45:14;;;;;;;;;;;8.90;99.90;;;;;;5082977;28;19924;-63
2023/03/25 01:47:41;;;;;;;;;;;8.80;99.90;;;;;;5081788;28;19920;-64
2023/03/25 01:50:13;;;;;;;;;;;8.80;99.90;;;;;;5084339;28;20274;-62
2023/03/25 01:52:41;;;;;;;;;;;8.80;97.40;;;;;;5084619;28;19920;-64
2023/03/25 01:55:08;;;;;;;;;;;8.90;93.50;;;;;;5082577;28;19969;-64
2023/03/25 01:57:36;;;;;;;;;;;8.90;87.90;;;;;;5081731;28;19920;-64
2023/03/25 02:00:07;;;;;;;;;;;8.90;77.10;;;;;;5078371;28;20294;-64
2023/03/25 02:02:35;;;;;;;;;;;8.90;76.30;;;;;;5082079;28;19966;-63
2023/03/25 02:05:04;;;;;;;;;;;8.90;62.80;;;;;;5078350;28;20031;-62
2023/03/25 02:07:32;;;;;;;;;;;8.90;67.40;;;;;;5082082;28;20417;-64
2023/03/25 02:10:00;;;;;;;;;;;8.90;56.20;;;;;;5084000;28;20374;-63
2023/03/25 02:12:27;;;;;;;;;;;8.90;55.50;;;;;;5082961;28;20382;-64
2023/03/25 02:14:54;;;;;;;;;;;8.90;61.90;;;;;;5082106;28;19921;-64
2023/03/25 02:17:27;;;;;;;;;;;8.90;58.50;;;;;;5083171;28;19924;-64
2023/03/25 02:20:15;;;;;;;;;;;8.90;58.80;;;;;;5084167;28;19923;-63
2023/03/25 02:23:00;;;;;;;;;;;8.80;52.20;;;;;;5078106;28;19970;-64
2023/03/25 02:25:44;;;;;;;;;;;8.80;55.10;;;;;;5077660;28;20293;-64
2023/03/25 02:28:15;;;;;;;;;;;8.90;56.10;;;;;;5082289;28;20283;-64
2023/03/25 02:30:51;;;;;;;;;;;8.90;52.40;;;;;;5082161;28;19931;-64
2023/03/25 02:33:39;;;;;;;;;;;8.90;48.90;;;;;;5081407;28;19958;-64
2023/03/25 02:36:29;;;;;;;;;;;8.80;49.80;;;;;;5082975;28;19920;-65
2023/03/25 02:39:00;;;;;;;;;;;8.90;42.60;;;;;;5080305;28;20010;-65
2023/03/25 02:41:30;;;;;;;;;;;8.90;31.10;;;;;;5082590;28;19939;-65
2023/03/25 02:44:00;;;;;;;;;;;8.90;31.90;;;;;;5083824;28;19927;-65
2023/03/25 02:46:29;;;;;;;;;;;8.90;37.80;;;;;;5082576;28;19975;-64
2023/03/25 02:48:58;;;;;;;;;;;8.90;36.70;;;;;;5081372;28;19921;-63
2023/03/25 02:51:28;;;;;;;;;;;8.80;46.50;;;;;;5082491;28;19920;-65
2023/03/25 02:53:56;;;;;;;;;;;8.80;48.00;;;;;;5083608;28;19920;-65
2023/03/25 02:56:25;;;;;;;;;;;8.80;58.60;;;;;;5082038;28;19924;-65
2023/03/25 02:58:54;;;;;;;;;;;8.80;55.90;;;;;;5083969;28;19931;-64
2023/03/25 03:01:21;;;;;;;;;;;8.80;49.20;;;;;;5082449;28;20010;-65
2023/03/25 03:03:48;;;;;;;;;;;8.70;42.60;;;;;;5083621;28;20012;-65
2023/03/25 03:06:16;;;;;;;;;;;8.70;49.90;;;;;;5081063;28;19928;-64
2023/03/25 03:08:49;;;;;;;;;;;8.70;53.10;;;;;;5081939;28;20049;-64
2023/03/25 03:11:19;;;;;;;;;;;8.60;58.40;;;;;;5078602;28;19964;-64
2023/03/25 03:14:06;;;;;;;;;;;8.70;51.00;;;;;;5080967;28;19924;-62
2023/03/25 03:16:36;;;;;;;;;;;8.70;48.80;;;;;;5080731;28;20333;-63
2023/03/25 03:19:08;;;;;;;;;;;8.70;49.10;;;;;;5082100;28;19924;-64
2023/03/25 03:21:38;;;;;;;;;;;8.70;53.30;;;;;;5083338;28;20439;-63
2023/03/25 03:24:08;;;;;;;;;;;8.70;50.90;;;;;;5081297;28;19920;-64
2023/03/25 03:26:38;;;;;;;;;;;8.70;49.50;;;;;;5080842;28;19970;-64
2023/03/25 03:29:09;;;;;;;;;;;8.70;37.40;;;;;;5084992;28;20014;-64
2023/03/25 03:31:38;;;;;;;;;;;8.70;46.00;;;;;;5077994;28;20279;-64
2023/03/25 03:34:09;;;;;;;;;;;8.80;35.20;;;;;;5081744;28;20286;-65
2023/03/25 03:36:39;;;;;;;;;;;8.70;51.30;;;;;;5077523;28;19920;-64
2023/03/25 03:39:12;;;;;;;;;;;8.70;48.40;;;;;;5081046;28;20328;-63
2023/03/25 03:41:41;;;;;;;;;;;8.60;70.30;;;;;;5078891;28;19931;-64
2023/03/25 03:44:11;;;;;;;;;;;8.60;95.10;;;;;;5081636;28;19927;-63
2023/03/25 03:46:40;;;;;;;;;;;8.60;99.90;;;;;;5085733;28;19919;-63
2023/03/25 03:49:09;;;;;;;;;;;8.50;99.90;;;;;;5087230;28;19927;-64
2023/03/25 03:51:37;;;;;;;;;;;8.40;99.90;;;;;;5085198;28;19926;-64
2023/03/25 03:54:05;;;;;;;;;;;8.50;99.90;;;;;;5087027;28;19920;-65
2023/03/25 03:56:35;;;;;;;;;;;8.50;99.90;;;;;;5079972;28;19920;-65
2023/03/25 03:59:04;;;;;;;;;;;8.50;99.90;;;;;;5086426;28;19942;-64
2023/03/25 04:01:34;;;;;;;;;;;8.50;99.90;;;;;;5081104;28;19958;-63
2023/03/25 04:04:02;;;;;;;;;;;8.50;99.90;;;;;;5084569;28;19924;-63
2023/03/25 04:06:34;;;;;;;;;;;8.50;99.90;;;;;;5080330;28;19925;-61
2023/03/25 04:09:03;;;;;;;;;;;8.40;99.90;;;;;;5084283;28;19920;-63
2023/03/25 04:11:32;;;;;;;;;;;8.40;99.90;;;;;;5081259;28;19920;-64
2023/03/25 04:14:00;;;;;;;;;;;8.30;99.90;;;;;;5084133;28;19920;-63
2023/03/25 04:16:27;;;;;;;;;;;8.40;99.90;;;;;;5080145;28;19966;-64
2023/03/25 04:18:57;;;;;;;;;;;8.40;99.90;;;;;;5084975;28;19920;-63
2023/03/25 04:21:24;;;;;;;;;;;8.40;99.90;;;;;;5086541;28;19927;-63
2023/03/25 04:23:50;;;;;;;;;;;8.40;99.90;;;;;;5086505;28;19927;-64
2023/03/25 04:26:17;;;;;;;;;;;8.40;99.90;;;;;;5083861;28;19920;-62
2023/03/25 04:28:45;;;;;;;;;;;8.40;99.90;;;;;;5084369;28;20302;-64
2023/03/25 04:31:15;;;;;;;;;;;8.30;99.90;;;;;;5084322;28;19924;-63
2023/03/25 04:33:45;;;;;;;;;;;8.40;99.90;;;;;;5081083;28;19920;-63
2023/03/25 04:36:14;;;;;;;;;;;8.40;94.80;;;;;;5083983;28;19924;-63
2023/03/25 04:38:44;;;;;;;;;;;8.40;93.50;;;;;;5080396;28;20329;-64
2023/03/25 04:41:11;;;;;;;;;;;8.50;99.90;;;;;;5083745;28;19921;-64
2023/03/25 04:43:38;;;;;;;;;;;8.40;99.90;;;;;;5083303;28;19981;-63
2023/03/25 04:46:05;;;;;;;;;;;8.40;99.90;;;;;;5083976;28;20383;-64
2023/03/25 04:48:33;;;;;;;;;;;8.40;99.90;;;;;;5085998;28;19920;-64
2023/03/25 04:51:00;;;;;;;;;;;8.30;99.90;;;;;;5084549;28;19963;-63
2023/03/25 04:53:28;;;;;;;;;;;8.30;99.90;;;;;;5085565;28;19969;-64
2023/03/25 04:55:55;;;;;;;;;;;8.30;99.90;;;;;;5083248;28;20264;-64
2023/03/25 04:58:22;;;;;;;;;;;8.20;99.90;;;;;;5083815;28;19924;-64
2023/03/25 05:00:50;;;;;;;;;;;8.20;99.90;;;;;;5085673;28;19924;-63
2023/03/25 05:03:16;;;;;;;;;;;8.20;99.90;;;;;;5084607;28;19924;-64
2023/03/25 05:05:43;;;;;;;;;;;8.10;99.90;;;;;;5083202;28;19924;-64
2023/03/25 05:08:10;;;;;;;;;;;8.10;99.90;;;;;;5084935;28;19920;-64
2023/03/25 05:10:38;;;;;;;;;;;8.20;99.90;;;;;;5085022;28;20500;-63
2023/03/25 05:13:05;;;;;;;;;;;8.20;99.90;;;;;;5079032;28;19928;-64
2023/03/25 05:15:34;;;;;;;;;;;8.20;99.90;;;;;;5083988;28;19924;-64
2023/03/25 05:18:01;;;;;;;;;;;8.20;99.90;;;;;;5084964;28;19927;-63
2023/03/25 05:20:28;;;;;;;;;;;8.20;99.90;;;;;;5083747;28;20007;-63
2023/03/25 05:22:56;;;;;;;;;;;8.20;99.90;;;;;;5082659;28;20405;-62
2023/03/25 05:25:23;;;;;;;;;;;8.20;99.90;;;;;;5084613;28;20557;-62
2023/03/25 05:27:50;;;;;;;;;;;8.20;99.90;;;;;;5084758;28;19973;-63
2023/03/25 05:30:18;;;;;;;;;;;8.30;99.90;;;;;;5082919;28;20390;-64
2023/03/25 05:32:49;;;;;;;;;;;8.30;99.90;;;;;;5083683;28;19987;-64
2023/03/25 05:35:16;;;;;;;;;;;8.20;99.90;;;;;;5084978;28;19926;-64
2023/03/25 05:37:42;;;;;;;;;;;8.10;99.90;;;;;;5080796;28;20386;-64
2023/03/25 05:40:10;;;;;;;;;;;8.00;99.90;;;;;;5084115;28;19920;-62
2023/03/25 05:42:36;;;;;;;;;;;8.00;99.90;;;;;;5084017;28;20397;-64
2023/03/25 05:45:04;;;;;;;;;;;8.00;99.90;;;;;;5084012;28;19977;-62
2023/03/25 05:47:31;;;;;;;;;;;8.10;99.90;;;;;;5078491;28;19924;-63
2023/03/25 05:49:59;;;;;;;;;;;8.10;99.90;;;;;;5083563;28;20322;-64
2023/03/25 05:52:26;;;;;;;;;;;8.10;99.90;;;;;;5084711;28;19920;-64
2023/03/25 05:54:52;;;;;;;;;;;8.20;99.90;;;;;;5081914;28;19925;-64
2023/03/25 05:57:19;;;;;;;;;;;8.20;99.90;;;;;;5081715;28;20541;-63
2023/03/25 05:59:46;;;;;;;;;;;8.20;99.90;;;;;;5078428;28;19928;-63
2023/03/25 06:02:15;;;;;;;;;;;8.20;99.90;;;;;;5082791;28;19931;-64
2023/03/25 06:04:42;;;;;;;;;;;8.20;99.90;;;;;;5084368;28;19981;-64
2023/03/25 06:07:12;;;;;;;;;;;8.20;99.90;;;;;;5081910;28;19924;-64
2023/03/25 06:09:45;;;;;;;;;;;8.10;99.90;;;;;;5081587;28;19927;-64
2023/03/25 06:12:12;;;;;;;;;;;8.10;99.90;;;;;;5082451;28;20011;-64
2023/03/25 06:14:41;;;;;;;;;;;8.10;99.90;;;;;;5083753;28;20439;-63
2023/03/25 06:17:08;;;;;;;;;;;8.20;99.90;;;;;;5082704;28;19921;-63
2023/03/25 06:19:38;;;;;;;;;;;8.30;99.90;;;;;;5081662;28;19921;-64
2023/03/25 06:22:05;;;;;;;;;;;8.30;99.90;;;;;;5082846;28;20002;-64
2023/03/25 06:24:31;;;;;;;;;;;8.20;99.90;;;;;;5083084;28;19974;-61
2023/03/25 06:26:58;;;;;;;;;;;8.20;99.90;;;;;;5081174;28;19972;-64
2023/03/25 06:29:25;;;;;;;;;;;8.40;99.90;;;;;;5082680;28;19986;-64
2023/03/25 06:31:51;;;;;;;;;;;8.30;99.90;;;;;;5084773;28;19926;-64
2023/03/25 06:34:18;;;;;;;;;;;8.40;99.90;;;;;;5083033;28;20584;-64
2023/03/25 06:36:48;;;;;;;;;;;8.40;99.90;;;;;;5083453;28;19924;-63
2023/03/25 06:39:15;;;;;;;;;;;8.40;99.90;;;;;;5078782;28;20002;-63
2023/03/25 06:41:42;;;;;;;;;;;8.30;99.90;;;;;;5081654;28;19921;-64
2023/03/25 06:44:09;;;;;;;;;;;8.30;99.90;;;;;;5083628;28;19978;-64
2023/03/25 06:46:35;;;;;;;;;;;8.20;99.90;;;;;;5082397;28;20424;-65
2023/03/25 06:49:02;;;;;;;;;;;8.10;99.90;;;;;;5081195;28;19924;-65
2023/03/25 06:51:29;;;;;;;;;;;8.20;99.90;;;;;;5082815;28;19923;-64
2023/03/25 06:53:56;;;;;;;;;;;8.20;99.90;;;;;;5081661;28;19958;-65
2023/03/25 06:56:23;;;;;;;;;;;8.40;99.90;;;;;;5083423;28;19985;-65
2023/03/25 06:58:49;;;;;;;;;;;8.40;99.90;;;;;;5082748;28;20274;-64
2023/03/25 07:01:16;;;;;;;;;;;8.40;99.90;;;;;;5081097;28;19924;-65
2023/03/25 07:03:42;;;;;;;;;;;8.40;99.90;;;;;;5083252;28;19924;-65
2023/03/25 07:06:14;;;;;;;;;;;8.20;99.90;;;;;;5083003;28;20316;-65
2023/03/25 07:08:40;;;;;;;;;;;8.20;99.90;;;;;;5078362;28;19920;-65
2023/03/25 07:11:10;;;;;;;;;;;8.20;99.90;;;;;;5081915;28;19920;-64
2023/03/25 07:13:36;;;;;;;;;;;8.30;99.90;;;;;;5080767;28;20336;-65
2023/03/25 07:16:03;;;;;;;;;;;8.30;99.90;;;;;;5082323;28;19934;-65
2023/03/25 07:18:29;;;;;;;;;;;8.30;99.90;;;;;;5085670;28;19920;-63
2023/03/25 07:20:56;;;;;;;;;;;8.30;99.90;;;;;;5085459;28;20447;-65
2023/03/25 07:23:22;;;;;;;;;;;8.30;99.90;;;;;;5087731;28;19924;-65
2023/03/25 07:25:49;;;;;;;;;;;8.40;99.90;;;;;;5084830;28;19966;-65
2023/03/25 07:28:17;;;;;;;;;;;8.50;99.90;;;;;;5085888;28;19920;-64
2023/03/25 07:30:44;;;;;;;;;;;8.60;99.90;;;;;;5087341;28;19938;-65
2023/03/25 07:33:11;;;;;;;;;;;8.60;99.90;;;;;;5085287;28;19921;-64
2023/03/25 07:35:37;;;;;;;;;;;8.60;99.90;;;;;;5084976;28;19929;-65
2023/03/25 07:38:04;;;;;;;;;;;8.70;99.90;;;;;;5086823;28;20410;-64
2023/03/25 07:40:30;;;;;;;;;;;8.70;99.90;;;;;;5086518;28;20009;-65
2023/03/25 07:42:57;;;;;;;;;;;8.80;99.90;;;;;;5084823;28;19920;-65
2023/03/25 07:45:25;;;;;;;;;;;8.90;99.90;;;;;;5087101;28;19920;-64
2023/03/25 07:47:52;;;;;;;;;;;8.80;99.90;;;;;;5086239;28;19924;-63
2023/03/25 07:50:18;;;;;;;;;;;8.90;99.90;;;;;;5084707;28;19924;-64
2023/03/25 07:52:45;;;;;;;;;;;8.80;99.90;;;;;;5085829;28;19931;-65
2023/03/25 07:55:11;;;;;;;;;;;8.80;99.90;;;;;;5086812;28;19927;-65
2023/03/25 07:57:39;;;;;;;;;;;8.70;99.90;;;;;;5084520;28;19938;-63
2023/03/25 08:00:06;;;;;;;;;;;8.80;99.90;;;;;;5084405;28;20011;-64
2023/03/25 08:02:34;;;;;;;;;;;8.80;99.90;;;;;;5080683;28;20325;-64
2023/03/25 08:05:01;;;;;;;;;;;8.70;99.90;;;;;;5085335;28;19970;-65
2023/03/25 08:07:28;;;;;;;;;;;8.60;99.90;;;;;;5086613;28;19927;-65
2023/03/25 08:09:54;;;;;;;;;;;8.60;99.90;;;;;;5085233;28;19920;-65
2023/03/25 08:12:21;;;;;;;;;;;8.60;99.90;;;;;;5084293;28;19989;-64
2023/03/25 08:14:47;;;;;;;;;;;8.60;99.90;;;;;;5080341;28;20271;-64
2023/03/25 08:17:14;;;;;;;;;;;8.60;99.60;;;;;;5084887;28;19977;-64
2023/03/25 08:19:42;;;;;;;;;;;8.60;93.80;;;;;;5084983;28;19970;-64
2023/03/25 08:22:09;;;;;;;;;;;8.70;90.20;;;;;;5084634;28;19924;-62
2023/03/25 08:24:36;;;;;;;;;;;8.70;79.90;;;;;;5084476;28;19974;-64
2023/03/25 08:27:03;;;;;;;;;;;8.70;87.00;;;;;;5080647;28;19920;-64
2023/03/25 08:29:33;;;;;;;;;;;8.80;62.50;;;;;;5084297;28;19928;-63
2023/03/25 08:32:00;;;;;;;;;;;8.90;51.50;;;;;;5086912;28;19920;-63
2023/03/25 08:34:27;;;;;;;;;;;9.00;72.90;;;;;;5085048;28;19920;-64
2023/03/25 08:36:55;;;;;;;;;;;9.10;45.60;;;;;;5083508;28;20033;-64
2023/03/25 08:39:28;;;;;;;;;;;9.30;37.90;;;;;;5085254;28;19920;-63
2023/03/25 08:41:54;;;;;;;;;;;9.20;33.10;;;;;;5086277;28;19943;-64
2023/03/25 08:44:21;;;;;;;;;;;9.40;34.90;;;;;;5086719;28;19931;-62
2023/03/25 08:46:47;;;;;;;;;;;9.40;28.00;;;;;;5083522;28;19966;-64
2023/03/25 08:49:14;;;;;;;;;;;9.40;15.10;;;;;;5080071;28;20316;-64
2023/03/25 08:51:41;;;;;;;;;;;9.20;9.40;;;;;;5084442;28;20413;-63
2023/03/25 08:54:09;;;;;;;;;;;9.20;13.30;;;;;;5086135;28;19928;-63
2023/03/25 08:56:35;;;;;;;;;;;9.20;9.20;;;;;;5081944;28;19927;-64
2023/03/25 08:59:02;;;;;;;;;;;9.20;26.70;;;;;;5085768;28;19927;-63
2023/03/25 09:01:28;;;;;;;;;;;9.30;20.20;;;;;;5079838;28;19920;-64
2023/03/25 09:03:56;;;;;;;;;;;9.40;27.10;;;;;;5083956;28;20424;-64
2023/03/25 09:06:23;;;;;;;;;;;9.40;24.90;;;;;;5085520;28;19943;-64
2023/03/25 09:08:51;;;;;;;;;;;9.40;16.80;;;;;;5084077;28;19920;-65
2023/03/25 09:11:19;;;;;;;;;;;9.50;9.10;;;;;;5082729;28;19920;-64
2023/03/25 09:13:45;;;;;;;;;;;9.50;19.90;;;;;;5084994;28;20314;-65
2023/03/25 09:16:12;;;;;;;;;;;9.50;28.30;;;;;;5084580;28;19939;-65
2023/03/25 09:18:39;;;;;;;;;;;9.40;13.20;;;;;;5082955;28;19924;-63
2023/03/25 09:21:06;;;;;;;;;;;9.50;14.20;;;;;;5084315;28;19923;-65
2023/03/25 09:23:32;;;;;;;;;;;9.60;13.20;;;;;;5085056;28;19920;-63
2023/03/25 09:25:59;;;;;;;;;;;9.60;1.00;;;;;;5083144;28;20336;-64
2023/03/25 09:28:27;;;;;;;;;;;9.50;9.40;;;;;;5083048;28;20410;-64
2023/03/25 09:30:55;;;;;;;;;;;9.60;1.00;;;;;;5085138;28;19920;-64
2023/03/25 09:33:22;;;;;;;;;;;9.60;1.00;;;;;;5084030;28;19947;-64
2023/03/25 09:35:49;;;;;;;;;;;9.60;1.00;;;;;;5082842;28;19921;-65
2023/03/25 09:38:15;;;;;;;;;;;9.70;1.00;;;;;;5084147;28;19920;-65
2023/03/25 09:40:42;;;;;;;;;;;9.90;1.00;;;;;;5084615;28;19923;-65
2023/03/25 09:43:20;;;;;;;;;;;10.10;1.00;;;;;;5081887;28;19920;-63
2023/03/25 09:45:48;;;;;;;;;;;10.10;23.70;;;;;;5082315;28;19924;-62
2023/03/25 09:48:21;;;;;;;;;;;10.00;40.90;;;;;;5083891;28;19924;-64
2023/03/25 09:50:48;;;;;;;;;;;10.00;53.40;;;;;;5084691;28;20427;-64
2023/03/25 09:53:22;;;;;;;;;;;9.70;84.20;;;;;;5083627;28;19928;-65
2023/03/25 09:55:49;;;;;;;;;;;9.60;93.60;;;;;;5082023;28;19920;-65
2023/03/25 09:58:24;;;;;;;;;;;9.50;99.90;;;;;;5083199;28;20400;-64
2023/03/25 10:00:55;;;;;;;;;;;9.50;99.90;;;;;;5078596;28;19951;-64
2023/03/25 10:03:24;;;;;;;;;;;9.50;99.90;;;;;;5082188;28;19920;-65
2023/03/25 10:06:12;;;;;;;;;;;9.60;99.90;;;;;;5079019;28;19920;-65
2023/03/25 10:08:44;;;;;;;;;;;9.70;99.90;;;;;;5076296;28;20378;-64
2023/03/25 10:11:15;;;;;;;;;;;9.70;57.00;;;;;;5080999;28;19927;-65
2023/03/25 10:13:47;;;;;;;;;;;9.80;48.80;;;;;;5083503;28;19924;-63
2023/03/25 10:16:21;;;;;;;;;;;9.80;42.80;;;;;;5077930;28;20019;-64
2023/03/25 10:18:54;;;;;;;;;;;10.10;23.80;;;;;;5070685;28;19989;-63
2023/03/25 10:21:23;;;;;;;;;;;10.20;4.50;;;;;;5078989;28;19920;-64
2023/03/25 10:23:52;;;;;;;;;;;10.30;1.00;;;;;;5078767;28;19924;-64
2023/03/25 10:26:21;;;;;;;;;;;10.30;1.00;;;;;;5082542;28;19924;-63
2023/03/25 10:28:50;;;;;;;;;;;10.30;1.00;;;;;;5083277;28;19920;-62
2023/03/25 10:31:20;;;;;;;;;;;10.50;1.00;;;;;;5082027;28;20333;-63
2023/03/25 10:33:51;;;;;;;;;;;10.30;1.00;;;;;;5081613;28;19969;-64
2023/03/25 10:36:19;;;;;;;;;;;10.40;1.00;;;;;;5082322;28;19924;-64
2023/03/25 10:38:46;;;;;;;;;;;10.30;1.00;;;;;;5083252;28;19920;-65
2023/03/25 10:41:16;;;;;;;;;;;10.30;1.00;;;;;;5081679;28;19924;-64
2023/03/25 10:43:43;;;;;;;;;;;10.20;1.00;;;;;;5080974;28;19927;-63
2023/03/25 10:46:13;;;;;;;;;;;10.30;1.00;;;;;;5079594;28;19920;-65
2023/03/25 10:48:41;;;;;;;;;;;11.10;1.00;;;;;;5076869;28;19981;-68
2023/03/25 10:51:10;;;;;;;;;;;10.50;1.00;;;;;;5076732;28;19998;-64
2023/03/25 10:53:37;;;;;;;;;;;10.70;1.00;;;;;;5080447;28;19923;-64
2023/03/25 10:56:06;;;;;;;;;;;10.70;1.00;;;;;;5080761;28;19920;-66
2023/03/25 10:58:33;;;;;;;;;;;10.80;1.00;;;;;;5082162;28;19970;-71
2023/03/25 11:01:00;;;;;;;;;;;10.90;99.90;;;;;;5077383;28;20405;-68
2023/03/25 11:03:30;;;;;;;;;;;11.00;1.00;;;;;;5079075;28;21269;-69
2023/03/25 11:05:58;;;;;;;;;;;10.90;1.00;;;;;;5082083;28;20545;-69
2023/03/25 11:08:26;;;;;;;;;;;11.00;1.00;;;;;;5081754;28;20019;-69
2023/03/25 11:10:56;;;;;;;;;;;11.00;1.00;;;;;;5080918;28;20038;-69
2023/03/25 11:13:24;;;;;;;;;;;10.90;1.00;;;;;;5077539;28;19929;-70
2023/03/25 11:15:52;;;;;;;;;;;10.60;1.00;;;;;;5080923;28;19927;-69
2023/03/25 11:18:21;;;;;;;;;;;10.60;1.00;;;;;;5078296;28;19943;-68
2023/03/25 11:20:49;;;;;;;;;;;10.50;1.00;;;;;;5079216;28;19951;-67
2023/03/25 11:23:20;;;;;;;;;;;10.40;1.00;;;;;;5081292;28;19974;-70
2023/03/25 11:25:47;;;;;;;;;;;10.30;1.00;;;;;;5080802;28;19924;-69
2023/03/25 11:28:16;;;;;;;;;;;10.20;27.00;;;;;;5082796;28;19931;-70
2023/03/25 11:31:01;;;;;;;;;;;10.20;78.00;;;;;;5081954;28;19931;-69
2023/03/25 11:33:27;;;;;;;;;;;10.20;86.10;;;;;;5079787;28;20577;-70
2023/03/25 11:35:54;;;;;;;;;;;10.20;65.70;;;;;;5080624;28;19924;-69
2023/03/25 11:38:23;;;;;;;;;;;10.30;89.00;;;;;;5081880;28;19924;-69
2023/03/25 11:40:51;;;;;;;;;;;10.60;80.90;;;;;;5082913;28;19969;-70
2023/03/25 11:43:20;;;;;;;;;;;10.60;66.90;;;;;;5079793;28;19928;-70
2023/03/25 11:45:46;;;;;;;;;;;10.80;44.00;;;;;;5080652;28;19924;-70
2023/03/25 11:48:16;;;;;;;;;;;10.70;12.80;;;;;;5082383;28;19924;-66
2023/03/25 11:50:46;;;;;;;;;;;10.70;46.50;;;;;;5081903;28;19977;-66
2023/03/25 11:53:14;;;;;;;;;;;10.40;24.90;;;;;;5075911;28;20001;-64
2023/03/25 11:55:44;;;;;;;;;;;10.60;42.40;;;;;;5080637;28;19986;-67
2023/03/25 11:58:14;;;;;;;;;;;10.40;90.10;;;;;;5079846;28;19974;-63
2023/03/25 12:00:41;;;;;;;;;;;10.40;99.90;;;;;;5078382;28;19932;-63
2023/03/25 12:03:16;;;;;;;;;;;10.50;99.90;;;;;;5078483;28;19939;-64
2023/03/25 12:05:43;;;;;;;;;;;10.70;99.90;;;;;;5080500;28;20058;-64
2023/03/25 12:08:13;;;;;;;;;;;11.00;99.90;;;;;;5083750;28;19935;-64
2023/03/25 12:10:50;;;;;;;;;;;11.20;44.10;;;;;;5083559;28;19929;-66
2023/03/25 12:13:19;;;;;;;;;;;11.20;7.70;;;;;;5080947;28;19932;-65
2023/03/25 12:15:52;;;;;;;;;;;11.10;62.90;;;;;;5082738;28;19928;-64
2023/03/25 12:18:28;;;;;;;;;;;11.10;99.90;;;;;;5077189;28;19928;-64
2023/03/25 12:21:01;;;;;;;;;;;11.10;99.90;;;;;;5078867;28;20333;-65
2023/03/25 12:23:33;;;;;;;;;;;11.20;99.90;;;;;;5083710;28;19963;-65
2023/03/25 12:26:05;;;;;;;;;;;11.40;96.30;;;;;;5080533;28;19936;-65
2023/03/25 12:28:38;;;;;;;;;;;11.30;98.40;;;;;;5079700;28;20007;-64
2023/03/25 12:31:10;;;;;;;;;;;11.20;82.80;;;;;;5083926;28;20428;-65
2023/03/25 12:33:46;;;;;;;;;;;11.40;86.40;;;;;;5080871;28;19990;-64
2023/03/25 12:36:19;;;;;;;;;;;11.60;59.40;;;;;;5082753;28;19935;-64
2023/03/25 12:38:52;;;;;;;;;;;11.60;1.00;;;;;;5082690;28;19971;-63
2023/03/25 12:41:22;;;;;;;;;;;11.60;1.00;;;;;;5081486;28;19929;-63
2023/03/25 12:43:54;;;;;;;;;;;11.60;1.00;;;;;;5086938;28;19951;-62
2023/03/25 12:46:28;;;;;;;;;;;11.70;1.00;;;;;;5083913;28;19924;-64
2023/03/25 12:48:59;;;;;;;;;;;11.40;1.00;;;;;;5083002;28;19928;-63
2023/03/25 12:51:32;;;;;;;;;;;11.50;1.00;;;;;;5083488;28;19978;-65
2023/03/25 12:54:03;;;;;;;;;;;11.60;1.00;;;;;;5080044;28;20440;-65
2023/03/25 12:56:37;;;;;;;;;;;11.50;1.00;;;;;;5082500;28;19924;-64
2023/03/25 12:59:11;;;;;;;;;;;11.60;1.00;;;;;;5081313;28;19925;-64
2023/03/25 13:01:43;;;;;;;;;;;11.60;1.00;;;;;;5082696;28;19977;-63
2023/03/25 13:04:20;;;;;;;;;;;11.60;1.00;;;;;;5083289;28;19928;-64
2023/03/25 13:06:50;;;;;;;;;;;11.70;1.00;;;;;;5081241;28;19977;-65
2023/03/25 13:09:20;;;;;;;;;;;11.90;1.00;;;;;;5082478;28;19948;-64
2023/03/25 13:11:50;;;;;;;;;;;12.00;1.00;;;;;;5083502;28;19977;-62
2023/03/25 13:14:20;;;;;;;;;;;12.00;1.00;;;;;;5084973;28;19946;-62
2023/03/25 13:16:47;;;;;;;;;;;12.10;1.00;;;;;;5083297;28;19993;-61
2023/03/25 13:19:16;;;;;;;;;;;12.20;99.90;;;;;;5081639;28;20391;-62
2023/03/25 13:21:44;;;;;;;;;;;12.30;99.90;;;;;;5083966;28;19977;-63
2023/03/25 13:24:12;;;;;;;;;;;12.30;1.00;;;;;;5083240;28;19978;-64
2023/03/25 13:26:41;;;;;;;;;;;12.20;87.40;;;;;;5082924;28;19924;-64
2023/03/25 13:29:12;;;;;;;;;;;12.00;1.00;;;;;;5084689;28;19924;-64
2023/03/25 13:31:41;;;;;;;;;;;11.90;99.90;;;;;;5082953;28;19928;-64
2023/03/25 13:34:15;;;;;;;;;;;11.70;99.90;;;;;;5081350;28;19928;-63
2023/03/25 13:36:42;;;;;;;;;;;11.40;99.90;;;;;;5082788;28;20378;-69
2023/03/25 13:39:12;;;;;;;;;;;11.20;1.00;;;;;;5084091;28;19924;-63
2023/03/25 13:41:41;;;;;;;;;;;11.00;1.00;;;;;;5083035;28;19924;-63
2023/03/25 13:44:10;;;;;;;;;;;10.80;1.00;;;;;;5081643;28;19924;-63
2023/03/25 13:46:40;;;;;;;;;;;10.50;1.00;;;;;;5082741;28;20380;-63
2023/03/25 13:49:13;;;;;;;;;;;10.40;90.80;;;;;;5081776;28;19924;-63
2023/03/25 13:51:40;;;;;;;;;;;10.50;80.30;;;;;;5082717;28;19951;-63
2023/03/25 13:54:09;;;;;;;;;;;10.70;85.10;;;;;;5079370;28;19928;-65
2023/03/25 13:57:01;;;;;;;;;;;10.90;83.50;;;;;;5081789;28;20402;-64
2023/03/25 13:59:38;;;;;;;;;;;11.00;24.70;;;;;;5081921;28;19970;-63
2023/03/25 14:02:24;;;;;;;;;;;11.00;1.00;;;;;;5077691;28;19940;-64
2023/03/25 14:05:00;;;;;;;;;;;11.00;18.70;;;;;;5081446;28;19924;-64
2023/03/25 14:07:51;;;;;;;;;;;11.00;1.00;;;;;;5077804;28;19928;-65
2023/03/25 14:10:28;;;;;;;;;;;10.90;1.00;;;;;;5072282;28;19928;-63
2023/03/25 14:12:55;;;;;;;;;;;11.00;1.00;;;;;;5080072;28;19924;-64
2023/03/25 14:15:23;;;;;;;;;;;10.90;1.00;;;;;;5080943;28;19931;-64
2023/03/25 14:17:53;;;;;;;;;;;10.90;1.00;;;;;;5082994;28;20428;-65
2023/03/25 14:20:23;;;;;;;;;;;11.10;1.00;;;;;;5083567;28;20335;-63
2023/03/25 14:22:55;;;;;;;;;;;11.20;1.00;;;;;;5079067;28;19958;-64
2023/03/25 14:25:27;;;;;;;;;;;11.10;1.00;;;;;;5083792;28;19924;-64
2023/03/25 14:27:53;;;;;;;;;;;11.00;1.00;;;;;;5083286;28;20016;-65
2023/03/25 14:30:22;;;;;;;;;;;10.90;1.00;;;;;;5083145;28;19951;-64
2023/03/25 14:32:50;;;;;;;;;;;10.70;1.00;;;;;;5081830;28;19936;-64
2023/03/25 14:35:32;;;;;;;;;;;10.40;31.50;;;;;;5080554;28;20405;-64
2023/03/25 14:38:13;;;;;;;;;;;10.20;96.20;;;;;;5067887;28;19960;-65
2023/03/25 14:40:51;;;;;;;;;;;10.10;99.90;;;;;;5077396;28;19928;-64